sensor_id;sensor_type;location;lat;lon;timestamp;P1;durP1;ratioP1;P2;durP2;ratioP2
45686;SDS011;31399;51.176;7.776;2022-09-27T00:00:32;5.70;;;1.73;;
45686;SDS011;31399;51.176;7.776;2022-09-27T00:02:58;4.03;;;2.05;;
45686;SDS011;31399;51.176;7.776;2022-09-27T00:05:25;4.72;;;2.40;;
45686;SDS011;31399;51.176;7.776;2022-09-27T00:07:51;8.07;;;2.30;;
45686;SDS011;31399;51.176;7.776;2022-09-27T00:10:18;4.55;;;1.88;;
45686;SDS011;31399;51.176;7.776;2022-09-27T00:12:45;5.32;;;2.47;;
45686;SDS011;31399;51.176;7.776;2022-09-27T00:15:11;3.97;;;1.90;;
45686;SDS011;31399;51.176;7.776;2022-09-27T00:17:38;4.93;;;2.40;;
45686;SDS011;31399;51.176;7.776;2022-09-27T00:20:06;4.88;;;1.73;;
45686;SDS011;31399;51.176;7.776;2022-09-27T00:22:33;4.57;;;1.52;;
45686;SDS011;31399;51.176;7.776;2022-09-27T00:25:00;4.20;;;1.23;;
45686;SDS011;31399;51.176;7.776;2022-09-27T00:27:27;4.18;;;1.50;;
45686;SDS011;31399;51.176;7.776;2022-09-27T00:29:53;10.32;;;2.28;;
45686;SDS011;31399;51.176;7.776;2022-09-27T00:32:20;2.15;;;1.00;;
45686;SDS011;31399;51.176;7.776;2022-09-27T00:34:46;4.25;;;1.83;;
45686;SDS011;31399;51.176;7.776;2022-09-27T00:37:13;2.92;;;1.10;;
45686;SDS011;31399;51.176;7.776;2022-09-27T00:39:39;3.75;;;1.20;;
45686;SDS011;31399;51.176;7.776;2022-09-27T00:42:09;3.80;;;1.20;;
45686;SDS011;31399;51.176;7.776;2022-09-27T00:49:45;3.25;;;1.00;;
45686;SDS011;31399;51.176;7.776;2022-09-27T00:52:24;8.93;;;1.55;;
45686;SDS011;31399;51.176;7.776;2022-09-27T00:54:55;4.78;;;1.08;;
45686;SDS011;31399;51.176;7.776;2022-09-27T00:57:24;2.08;;;1.13;;
45686;SDS011;31399;51.176;7.776;2022-09-27T00:59:53;3.50;;;0.95;;
45686;SDS011;31399;51.176;7.776;2022-09-27T01:02:25;4.60;;;1.10;;
45686;SDS011;31399;51.176;7.776;2022-09-27T01:04:52;6.55;;;1.10;;
45686;SDS011;31399;51.176;7.776;2022-09-27T01:07:20;2.25;;;1.08;;
45686;SDS011;31399;51.176;7.776;2022-09-27T01:09:47;2.05;;;1.00;;
45686;SDS011;31399;51.176;7.776;2022-09-27T01:38:11;6.28;;;0.88;;
45686;SDS011;31399;51.176;7.776;2022-09-27T01:40:56;1.52;;;1.02;;
45686;SDS011;31399;51.176;7.776;2022-09-27T01:46:52;3.40;;;1.90;;
45686;SDS011;31399;51.176;7.776;2022-09-27T01:49:22;3.75;;;0.80;;
45686;SDS011;31399;51.176;7.776;2022-09-27T01:51:54;4.32;;;1.10;;
45686;SDS011;31399;51.176;7.776;2022-09-27T01:54:26;2.20;;;0.50;;
45686;SDS011;31399;51.176;7.776;2022-09-27T01:56:56;2.88;;;0.90;;
45686;SDS011;31399;51.176;7.776;2022-09-27T01:59:29;4.68;;;0.80;;
45686;SDS011;31399;51.176;7.776;2022-09-27T02:01:59;3.28;;;0.70;;
45686;SDS011;31399;51.176;7.776;2022-09-27T02:04:29;2.50;;;0.63;;
45686;SDS011;31399;51.176;7.776;2022-09-27T02:07:17;4.30;;;1.00;;
45686;SDS011;31399;51.176;7.776;2022-09-27T02:09:49;2.77;;;0.90;;
45686;SDS011;31399;51.176;7.776;2022-09-27T02:12:26;4.63;;;1.15;;
45686;SDS011;31399;51.176;7.776;2022-09-27T02:17:26;3.75;;;1.48;;
45686;SDS011;31399;51.176;7.776;2022-09-27T02:26:05;6.85;;;2.00;;
45686;SDS011;31399;51.176;7.776;2022-09-27T02:31:02;5.15;;;2.05;;
45686;SDS011;31399;51.176;7.776;2022-09-27T02:33:40;5.90;;;2.08;;
45686;SDS011;31399;51.176;7.776;2022-09-27T02:36:10;5.07;;;2.53;;
45686;SDS011;31399;51.176;7.776;2022-09-27T02:38:37;6.13;;;2.55;;
45686;SDS011;31399;51.176;7.776;2022-09-27T02:41:11;8.15;;;2.80;;
45686;SDS011;31399;51.176;7.776;2022-09-27T02:43:39;6.47;;;2.58;;
45686;SDS011;31399;51.176;7.776;2022-09-27T02:46:19;5.75;;;2.90;;
45686;SDS011;31399;51.176;7.776;2022-09-27T02:49:54;5.93;;;2.67;;
45686;SDS011;31399;51.176;7.776;2022-09-27T02:57:25;7.78;;;2.63;;
45686;SDS011;31399;51.176;7.776;2022-09-27T03:00:03;6.10;;;2.67;;
45686;SDS011;31399;51.176;7.776;2022-09-27T03:05:34;9.45;;;2.97;;
45686;SDS011;31399;51.176;7.776;2022-09-27T03:08:05;11.30;;;4.57;;
45686;SDS011;31399;51.176;7.776;2022-09-27T03:10:32;9.40;;;3.70;;
45686;SDS011;31399;51.176;7.776;2022-09-27T03:12:59;12.75;;;4.35;;
45686;SDS011;31399;51.176;7.776;2022-09-27T03:15:25;9.88;;;4.07;;
45686;SDS011;31399;51.176;7.776;2022-09-27T03:17:52;8.90;;;4.18;;
45686;SDS011;31399;51.176;7.776;2022-09-27T03:20:18;11.82;;;5.75;;
45686;SDS011;31399;51.176;7.776;2022-09-27T03:22:45;12.77;;;4.82;;
45686;SDS011;31399;51.176;7.776;2022-09-27T03:25:11;12.32;;;5.10;;
45686;SDS011;31399;51.176;7.776;2022-09-27T03:27:38;12.25;;;4.68;;
45686;SDS011;31399;51.176;7.776;2022-09-27T03:30:05;8.52;;;4.63;;
45686;SDS011;31399;51.176;7.776;2022-09-27T03:32:32;8.95;;;4.72;;
45686;SDS011;31399;51.176;7.776;2022-09-27T03:34:59;14.80;;;5.22;;
45686;SDS011;31399;51.176;7.776;2022-09-27T03:37:25;11.88;;;5.05;;
45686;SDS011;31399;51.176;7.776;2022-09-27T03:39:54;14.57;;;5.00;;
45686;SDS011;31399;51.176;7.776;2022-09-27T03:42:21;13.52;;;6.22;;
45686;SDS011;31399;51.176;7.776;2022-09-27T03:44:47;10.93;;;4.93;;
45686;SDS011;31399;51.176;7.776;2022-09-27T03:47:15;11.05;;;4.55;;
45686;SDS011;31399;51.176;7.776;2022-09-27T03:49:42;10.48;;;4.63;;
45686;SDS011;31399;51.176;7.776;2022-09-27T03:52:08;11.20;;;4.65;;
45686;SDS011;31399;51.176;7.776;2022-09-27T03:54:35;14.18;;;4.85;;
45686;SDS011;31399;51.176;7.776;2022-09-27T03:57:02;7.00;;;4.50;;
45686;SDS011;31399;51.176;7.776;2022-09-27T03:59:28;11.70;;;4.93;;
45686;SDS011;31399;51.176;7.776;2022-09-27T04:01:55;13.70;;;4.70;;
45686;SDS011;31399;51.176;7.776;2022-09-27T04:04:21;12.60;;;5.25;;
45686;SDS011;31399;51.176;7.776;2022-09-27T04:06:49;8.13;;;4.53;;
45686;SDS011;31399;51.176;7.776;2022-09-27T04:09:15;16.85;;;6.13;;
45686;SDS011;31399;51.176;7.776;2022-09-27T04:11:42;10.43;;;5.32;;
45686;SDS011;31399;51.176;7.776;2022-09-27T04:14:08;8.98;;;5.13;;
45686;SDS011;31399;51.176;7.776;2022-09-27T04:16:38;12.88;;;5.45;;
45686;SDS011;31399;51.176;7.776;2022-09-27T04:19:06;9.63;;;5.18;;
45686;SDS011;31399;51.176;7.776;2022-09-27T04:21:33;9.65;;;5.15;;
45686;SDS011;31399;51.176;7.776;2022-09-27T04:24:00;10.95;;;5.07;;
45686;SDS011;31399;51.176;7.776;2022-09-27T04:26:27;12.18;;;5.63;;
45686;SDS011;31399;51.176;7.776;2022-09-27T04:28:53;13.40;;;5.10;;
45686;SDS011;31399;51.176;7.776;2022-09-27T04:31:20;12.45;;;5.32;;
45686;SDS011;31399;51.176;7.776;2022-09-27T04:33:47;12.60;;;5.32;;
45686;SDS011;31399;51.176;7.776;2022-09-27T04:36:14;11.73;;;5.20;;
45686;SDS011;31399;51.176;7.776;2022-09-27T04:38:55;9.90;;;4.55;;
45686;SDS011;31399;51.176;7.776;2022-09-27T04:41:22;9.23;;;5.18;;
45686;SDS011;31399;51.176;7.776;2022-09-27T04:43:50;10.68;;;4.85;;
45686;SDS011;31399;51.176;7.776;2022-09-27T04:46:23;9.23;;;4.88;;
45686;SDS011;31399;51.176;7.776;2022-09-27T04:48:50;13.88;;;5.18;;
45686;SDS011;31399;51.176;7.776;2022-09-27T04:51:17;11.43;;;5.32;;
45686;SDS011;31399;51.176;7.776;2022-09-27T04:53:43;11.25;;;5.97;;
45686;SDS011;31399;51.176;7.776;2022-09-27T04:56:10;11.50;;;5.55;;
45686;SDS011;31399;51.176;7.776;2022-09-27T04:58:37;13.32;;;5.80;;
45686;SDS011;31399;51.176;7.776;2022-09-27T05:01:05;10.23;;;4.70;;
45686;SDS011;31399;51.176;7.776;2022-09-27T05:03:32;13.57;;;5.50;;
45686;SDS011;31399;51.176;7.776;2022-09-27T05:05:59;9.02;;;4.97;;
45686;SDS011;31399;51.176;7.776;2022-09-27T05:08:26;10.65;;;5.13;;
45686;SDS011;31399;51.176;7.776;2022-09-27T05:10:52;13.82;;;5.32;;
45686;SDS011;31399;51.176;7.776;2022-09-27T05:13:20;13.23;;;4.97;;
45686;SDS011;31399;51.176;7.776;2022-09-27T05:15:46;12.57;;;5.32;;
45686;SDS011;31399;51.176;7.776;2022-09-27T05:18:13;13.48;;;5.13;;
45686;SDS011;31399;51.176;7.776;2022-09-27T05:20:40;12.23;;;5.70;;
45686;SDS011;31399;51.176;7.776;2022-09-27T05:23:07;12.82;;;5.55;;
45686;SDS011;31399;51.176;7.776;2022-09-27T05:25:33;12.73;;;6.18;;
45686;SDS011;31399;51.176;7.776;2022-09-27T05:28:00;12.10;;;5.85;;
45686;SDS011;31399;51.176;7.776;2022-09-27T05:30:27;13.35;;;6.03;;
45686;SDS011;31399;51.176;7.776;2022-09-27T05:32:54;15.23;;;6.28;;
45686;SDS011;31399;51.176;7.776;2022-09-27T05:35:20;17.83;;;6.82;;
45686;SDS011;31399;51.176;7.776;2022-09-27T05:37:56;13.23;;;6.78;;
45686;SDS011;31399;51.176;7.776;2022-09-27T05:40:24;12.40;;;6.35;;
45686;SDS011;31399;51.176;7.776;2022-09-27T05:43:07;12.90;;;6.35;;
45686;SDS011;31399;51.176;7.776;2022-09-27T05:45:34;12.52;;;5.90;;
45686;SDS011;31399;51.176;7.776;2022-09-27T05:48:01;12.02;;;5.88;;
45686;SDS011;31399;51.176;7.776;2022-09-27T05:50:28;14.27;;;6.03;;
45686;SDS011;31399;51.176;7.776;2022-09-27T05:52:55;12.90;;;5.63;;
45686;SDS011;31399;51.176;7.776;2022-09-27T05:55:21;16.67;;;5.25;;
45686;SDS011;31399;51.176;7.776;2022-09-27T05:57:54;9.52;;;4.07;;
45686;SDS011;31399;51.176;7.776;2022-09-27T06:00:22;15.40;;;4.25;;
45686;SDS011;31399;51.176;7.776;2022-09-27T06:02:54;6.75;;;4.00;;
45686;SDS011;31399;51.176;7.776;2022-09-27T06:05:22;6.95;;;3.78;;
45686;SDS011;31399;51.176;7.776;2022-09-27T06:07:49;9.98;;;3.67;;
45686;SDS011;31399;51.176;7.776;2022-09-27T06:10:16;8.55;;;3.78;;
45686;SDS011;31399;51.176;7.776;2022-09-27T06:12:44;8.77;;;3.60;;
45686;SDS011;31399;51.176;7.776;2022-09-27T06:15:11;9.77;;;3.33;;
45686;SDS011;31399;51.176;7.776;2022-09-27T06:17:37;13.07;;;4.20;;
45686;SDS011;31399;51.176;7.776;2022-09-27T06:20:04;8.68;;;3.65;;
45686;SDS011;31399;51.176;7.776;2022-09-27T06:22:31;9.38;;;4.30;;
45686;SDS011;31399;51.176;7.776;2022-09-27T06:24:57;11.45;;;3.47;;
45686;SDS011;31399;51.176;7.776;2022-09-27T06:27:25;7.75;;;3.55;;
45686;SDS011;31399;51.176;7.776;2022-09-27T06:29:51;9.38;;;3.72;;
45686;SDS011;31399;51.176;7.776;2022-09-27T06:32:18;5.57;;;3.17;;
45686;SDS011;31399;51.176;7.776;2022-09-27T06:34:45;11.43;;;3.85;;
45686;SDS011;31399;51.176;7.776;2022-09-27T06:37:11;5.22;;;3.28;;
45686;SDS011;31399;51.176;7.776;2022-09-27T06:39:38;10.63;;;3.45;;
45686;SDS011;31399;51.176;7.776;2022-09-27T06:42:04;5.43;;;2.63;;
45686;SDS011;31399;51.176;7.776;2022-09-27T06:44:31;8.13;;;2.65;;
45686;SDS011;31399;51.176;7.776;2022-09-27T06:46:58;11.27;;;3.72;;
45686;SDS011;31399;51.176;7.776;2022-09-27T06:49:25;7.97;;;2.95;;
45686;SDS011;31399;51.176;7.776;2022-09-27T06:51:52;5.75;;;2.95;;
45686;SDS011;31399;51.176;7.776;2022-09-27T06:54:19;5.13;;;2.95;;
45686;SDS011;31399;51.176;7.776;2022-09-27T06:56:46;10.90;;;2.92;;
45686;SDS011;31399;51.176;7.776;2022-09-27T06:59:13;6.07;;;3.50;;
45686;SDS011;31399;51.176;7.776;2022-09-27T07:01:58;7.30;;;2.63;;
45686;SDS011;31399;51.176;7.776;2022-09-27T07:04:25;8.13;;;3.15;;
45686;SDS011;31399;51.176;7.776;2022-09-27T07:06:52;7.50;;;2.50;;
45686;SDS011;31399;51.176;7.776;2022-09-27T07:09:18;9.38;;;2.95;;
45686;SDS011;31399;51.176;7.776;2022-09-27T07:11:45;4.95;;;2.10;;
45686;SDS011;31399;51.176;7.776;2022-09-27T07:14:11;8.77;;;2.13;;
45686;SDS011;31399;51.176;7.776;2022-09-27T07:16:38;4.63;;;2.10;;
45686;SDS011;31399;51.176;7.776;2022-09-27T07:19:05;5.57;;;2.58;;
45686;SDS011;31399;51.176;7.776;2022-09-27T07:21:32;8.38;;;2.60;;
45686;SDS011;31399;51.176;7.776;2022-09-27T07:23:59;12.82;;;2.45;;
45686;SDS011;31399;51.176;7.776;2022-09-27T07:26:26;9.48;;;2.60;;
45686;SDS011;31399;51.176;7.776;2022-09-27T07:28:52;5.65;;;2.25;;
45686;SDS011;31399;51.176;7.776;2022-09-27T07:31:19;4.85;;;2.58;;
45686;SDS011;31399;51.176;7.776;2022-09-27T07:33:46;6.03;;;2.30;;
45686;SDS011;31399;51.176;7.776;2022-09-27T07:36:13;9.60;;;2.80;;
45686;SDS011;31399;51.176;7.776;2022-09-27T07:38:39;5.55;;;2.72;;
45686;SDS011;31399;51.176;7.776;2022-09-27T07:41:07;7.63;;;2.80;;
45686;SDS011;31399;51.176;7.776;2022-09-27T07:43:34;7.65;;;2.65;;
45686;SDS011;31399;51.176;7.776;2022-09-27T07:46:01;4.40;;;3.03;;
45686;SDS011;31399;51.176;7.776;2022-09-27T07:48:28;3.53;;;3.03;;
45686;SDS011;31399;51.176;7.776;2022-09-27T07:50:54;5.68;;;3.80;;
45686;SDS011;31399;51.176;7.776;2022-09-27T07:53:21;4.93;;;3.80;;
45686;SDS011;31399;51.176;7.776;2022-09-27T07:55:50;7.57;;;3.70;;
45686;SDS011;31399;51.176;7.776;2022-09-27T07:58:18;5.32;;;4.13;;
45686;SDS011;31399;51.176;7.776;2022-09-27T08:00:45;6.60;;;4.32;;
45686;SDS011;31399;51.176;7.776;2022-09-27T08:03:13;15.63;;;4.43;;
45686;SDS011;31399;51.176;7.776;2022-09-27T08:05:42;8.13;;;4.53;;
45686;SDS011;31399;51.176;7.776;2022-09-27T08:08:09;6.72;;;4.78;;
45686;SDS011;31399;51.176;7.776;2022-09-27T08:10:36;7.50;;;4.47;;
45686;SDS011;31399;51.176;7.776;2022-09-27T08:13:05;7.22;;;4.65;;
45686;SDS011;31399;51.176;7.776;2022-09-27T08:15:32;6.03;;;4.25;;
45686;SDS011;31399;51.176;7.776;2022-09-27T08:18:01;9.20;;;4.78;;
45686;SDS011;31399;51.176;7.776;2022-09-27T08:20:27;10.35;;;4.70;;
45686;SDS011;31399;51.176;7.776;2022-09-27T08:22:54;8.68;;;4.60;;
45686;SDS011;31399;51.176;7.776;2022-09-27T08:25:20;10.35;;;5.00;;
45686;SDS011;31399;51.176;7.776;2022-09-27T08:27:59;6.10;;;4.07;;
45686;SDS011;31399;51.176;7.776;2022-09-27T08:30:29;5.40;;;3.42;;
45686;SDS011;31399;51.176;7.776;2022-09-27T08:32:58;8.23;;;3.40;;
45686;SDS011;31399;51.176;7.776;2022-09-27T08:35:26;4.60;;;3.40;;
45686;SDS011;31399;51.176;7.776;2022-09-27T08:37:57;3.90;;;3.10;;
45686;SDS011;31399;51.176;7.776;2022-09-27T08:40:30;4.13;;;2.63;;
45686;SDS011;31399;51.176;7.776;2022-09-27T08:43:46;5.00;;;2.92;;
45686;SDS011;31399;51.176;7.776;2022-09-27T08:46:21;3.65;;;2.17;;
45686;SDS011;31399;51.176;7.776;2022-09-27T08:48:55;2.90;;;1.83;;
45686;SDS011;31399;51.176;7.776;2022-09-27T08:51:27;3.70;;;1.70;;
45686;SDS011;31399;51.176;7.776;2022-09-27T08:53:56;7.03;;;1.70;;
45686;SDS011;31399;51.176;7.776;2022-09-27T08:56:27;3.00;;;1.20;;
45686;SDS011;31399;51.176;7.776;2022-09-27T08:59:05;2.65;;;1.10;;
45686;SDS011;31399;51.176;7.776;2022-09-27T09:01:37;3.35;;;0.80;;
45686;SDS011;31399;51.176;7.776;2022-09-27T09:04:04;2.83;;;0.70;;
45686;SDS011;31399;51.176;7.776;2022-09-27T09:06:49;1.75;;;0.40;;
45686;SDS011;31399;51.176;7.776;2022-09-27T09:20:58;1.60;;;0.40;;
45686;SDS011;31399;51.176;7.776;2022-09-27T09:26:41;0.40;;;0.25;;
45686;SDS011;31399;51.176;7.776;2022-09-27T09:32:21;1.13;;;0.32;;
45686;SDS011;31399;51.176;7.776;2022-09-27T09:35:01;2.30;;;0.40;;
45686;SDS011;31399;51.176;7.776;2022-09-27T09:37:34;0.70;;;0.30;;
45686;SDS011;31399;51.176;7.776;2022-09-27T09:40:14;0.93;;;0.20;;
45686;SDS011;31399;51.176;7.776;2022-09-27T09:43:16;3.75;;;0.20;;
45686;SDS011;31399;51.176;7.776;2022-09-27T09:46:01;1.15;;;0.30;;
45686;SDS011;31399;51.176;7.776;2022-09-27T09:51:19;1.55;;;0.30;;
45686;SDS011;31399;51.176;7.776;2022-09-27T09:53:52;1.58;;;0.30;;
45686;SDS011;31399;51.176;7.776;2022-09-27T09:56:30;2.13;;;0.50;;
45686;SDS011;31399;51.176;7.776;2022-09-27T09:59:00;2.40;;;0.55;;
45686;SDS011;31399;51.176;7.776;2022-09-27T10:01:39;0.30;;;0.22;;
45686;SDS011;31399;51.176;7.776;2022-09-27T10:04:10;1.10;;;0.30;;
45686;SDS011;31399;51.176;7.776;2022-09-27T10:06:42;0.85;;;0.65;;
45686;SDS011;31399;51.176;7.776;2022-09-27T10:09:10;2.67;;;0.50;;
45686;SDS011;31399;51.176;7.776;2022-09-27T10:11:39;0.50;;;0.50;;
45686;SDS011;31399;51.176;7.776;2022-09-27T10:14:10;1.75;;;0.60;;
45686;SDS011;31399;51.176;7.776;2022-09-27T10:16:39;3.40;;;0.55;;
45686;SDS011;31399;51.176;7.776;2022-09-27T10:19:07;1.65;;;0.52;;
45686;SDS011;31399;51.176;7.776;2022-09-27T10:21:34;3.00;;;0.60;;
45686;SDS011;31399;51.176;7.776;2022-09-27T10:24:15;0.70;;;0.50;;
45686;SDS011;31399;51.176;7.776;2022-09-27T10:26:45;2.33;;;0.70;;
45686;SDS011;31399;51.176;7.776;2022-09-27T10:29:19;1.02;;;0.60;;
45686;SDS011;31399;51.176;7.776;2022-09-27T10:31:47;2.42;;;0.85;;
45686;SDS011;31399;51.176;7.776;2022-09-27T10:37:00;1.27;;;0.50;;
45686;SDS011;31399;51.176;7.776;2022-09-27T10:39:29;1.08;;;0.30;;
45686;SDS011;31399;51.176;7.776;2022-09-27T10:41:56;0.35;;;0.20;;
45686;SDS011;31399;51.176;7.776;2022-09-27T10:44:24;1.40;;;0.40;;
45686;SDS011;31399;51.176;7.776;2022-09-27T10:46:53;0.80;;;0.38;;
45686;SDS011;31399;51.176;7.776;2022-09-27T10:49:28;2.60;;;0.43;;
45686;SDS011;31399;51.176;7.776;2022-09-27T10:51:59;0.75;;;0.30;;
45686;SDS011;31399;51.176;7.776;2022-09-27T10:54:34;0.40;;;0.40;;
45686;SDS011;31399;51.176;7.776;2022-09-27T10:57:08;1.85;;;0.30;;
45686;SDS011;31399;51.176;7.776;2022-09-27T10:59:42;0.52;;;0.52;;
45686;SDS011;31399;51.176;7.776;2022-09-27T11:05:34;0.50;;;0.20;;
45686;SDS011;31399;51.176;7.776;2022-09-27T11:07:50;2.70;;;0.30;;
45686;SDS011;31399;51.176;7.776;2022-09-27T11:10:24;0.60;;;0.45;;
45686;SDS011;31399;51.176;7.776;2022-09-27T11:15:42;1.58;;;0.40;;
45686;SDS011;31399;51.176;7.776;2022-09-27T11:18:20;0.73;;;0.40;;
45686;SDS011;31399;51.176;7.776;2022-09-27T11:34:42;0.90;;;0.63;;
45686;SDS011;31399;51.176;7.776;2022-09-27T11:37:25;1.60;;;0.68;;
45686;SDS011;31399;51.176;7.776;2022-09-27T11:40:02;1.70;;;0.75;;
45686;SDS011;31399;51.176;7.776;2022-09-27T11:48:15;3.97;;;0.77;;
45686;SDS011;31399;51.176;7.776;2022-09-27T11:50:55;2.55;;;0.75;;
45686;SDS011;31399;51.176;7.776;2022-09-27T12:02:04;0.90;;;0.70;;
45686;SDS011;31399;51.176;7.776;2022-09-27T12:10:20;0.80;;;0.60;;
45686;SDS011;31399;51.176;7.776;2022-09-27T12:12:54;1.63;;;0.70;;
45686;SDS011;31399;51.176;7.776;2022-09-27T12:15:23;0.95;;;0.85;;
45686;SDS011;31399;51.176;7.776;2022-09-27T12:17:53;1.80;;;1.00;;
45686;SDS011;31399;51.176;7.776;2022-09-27T12:20:35;0.93;;;0.77;;
45686;SDS011;31399;51.176;7.776;2022-09-27T12:23:22;2.28;;;0.50;;
45686;SDS011;31399;51.176;7.776;2022-09-27T12:26:09;1.73;;;0.88;;
45686;SDS011;31399;51.176;7.776;2022-09-27T12:28:45;1.13;;;0.90;;
45686;SDS011;31399;51.176;7.776;2022-09-27T12:31:21;1.27;;;0.90;;
45686;SDS011;31399;51.176;7.776;2022-09-27T12:36:46;1.38;;;0.90;;
45686;SDS011;31399;51.176;7.776;2022-09-27T12:39:18;1.05;;;0.77;;
45686;SDS011;31399;51.176;7.776;2022-09-27T12:42:10;1.23;;;0.88;;
45686;SDS011;31399;51.176;7.776;2022-09-27T12:44:40;2.17;;;0.90;;
45686;SDS011;31399;51.176;7.776;2022-09-27T12:52:34;3.58;;;0.60;;
45686;SDS011;31399;51.176;7.776;2022-09-27T13:00:29;0.40;;;0.40;;
45686;SDS011;31399;51.176;7.776;2022-09-27T13:11:28;0.98;;;0.57;;
45686;SDS011;31399;51.176;7.776;2022-09-27T13:14:19;2.25;;;0.60;;
45686;SDS011;31399;51.176;7.776;2022-09-27T13:16:49;0.80;;;0.75;;
45686;SDS011;31399;51.176;7.776;2022-09-27T13:19:59;1.35;;;0.80;;
45686;SDS011;31399;51.176;7.776;2022-09-27T13:24:52;1.75;;;1.00;;
45686;SDS011;31399;51.176;7.776;2022-09-27T13:32:37;1.67;;;1.33;;
45686;SDS011;31399;51.176;7.776;2022-09-27T13:35:23;2.38;;;1.67;;
45686;SDS011;31399;51.176;7.776;2022-09-27T13:37:55;3.10;;;1.65;;
45686;SDS011;31399;51.176;7.776;2022-09-27T13:50:58;2.58;;;1.60;;
45686;SDS011;31399;51.176;7.776;2022-09-27T13:53:29;4.72;;;1.85;;
45686;SDS011;31399;51.176;7.776;2022-09-27T13:55:58;3.22;;;2.13;;
45686;SDS011;31399;51.176;7.776;2022-09-27T13:58:32;3.40;;;1.75;;
45686;SDS011;31399;51.176;7.776;2022-09-27T14:04:25;4.30;;;3.00;;
45686;SDS011;31399;51.176;7.776;2022-09-27T14:07:02;5.07;;;2.70;;
45686;SDS011;31399;51.176;7.776;2022-09-27T14:09:30;4.93;;;2.90;;
45686;SDS011;31399;51.176;7.776;2022-09-27T14:11:58;1.25;;;1.00;;
45686;SDS011;31399;51.176;7.776;2022-09-27T14:14:28;1.58;;;1.17;;
45686;SDS011;31399;51.176;7.776;2022-09-27T14:16:57;1.70;;;0.88;;
45686;SDS011;31399;51.176;7.776;2022-09-27T14:19:25;3.17;;;1.00;;
45686;SDS011;31399;51.176;7.776;2022-09-27T14:21:51;3.53;;;1.38;;
45686;SDS011;31399;51.176;7.776;2022-09-27T14:27:04;2.10;;;0.77;;
45686;SDS011;31399;51.176;7.776;2022-09-27T14:29:40;0.73;;;0.60;;
45686;SDS011;31399;51.176;7.776;2022-09-27T14:32:11;0.93;;;0.68;;
45686;SDS011;31399;51.176;7.776;2022-09-27T14:34:39;1.45;;;0.98;;
45686;SDS011;31399;51.176;7.776;2022-09-27T14:37:12;2.00;;;1.15;;
45686;SDS011;31399;51.176;7.776;2022-09-27T14:40:01;2.25;;;1.50;;
45686;SDS011;31399;51.176;7.776;2022-09-27T14:42:33;2.75;;;1.30;;
45686;SDS011;31399;51.176;7.776;2022-09-27T14:45:04;4.57;;;1.85;;
45686;SDS011;31399;51.176;7.776;2022-09-27T14:47:43;2.80;;;2.33;;
45686;SDS011;31399;51.176;7.776;2022-09-27T14:50:23;3.10;;;1.92;;
45686;SDS011;31399;51.176;7.776;2022-09-27T14:52:52;3.83;;;2.08;;
45686;SDS011;31399;51.176;7.776;2022-09-27T14:55:23;3.13;;;2.20;;
45686;SDS011;31399;51.176;7.776;2022-09-27T15:00:30;2.85;;;2.20;;
45686;SDS011;31399;51.176;7.776;2022-09-27T15:03:00;5.20;;;2.17;;
45686;SDS011;31399;51.176;7.776;2022-09-27T15:05:31;5.63;;;1.95;;
45686;SDS011;31399;51.176;7.776;2022-09-27T15:08:00;2.00;;;1.63;;
45686;SDS011;31399;51.176;7.776;2022-09-27T15:10:29;3.35;;;1.73;;
45686;SDS011;31399;51.176;7.776;2022-09-27T15:12:57;3.35;;;1.70;;
45686;SDS011;31399;51.176;7.776;2022-09-27T15:15:27;3.72;;;1.65;;
45686;SDS011;31399;51.176;7.776;2022-09-27T15:17:59;2.22;;;1.38;;
45686;SDS011;31399;51.176;7.776;2022-09-27T15:20:31;1.67;;;1.50;;
45686;SDS011;31399;51.176;7.776;2022-09-27T15:23:01;2.78;;;1.23;;
45686;SDS011;31399;51.176;7.776;2022-09-27T15:28:05;1.00;;;0.90;;
45686;SDS011;31399;51.176;7.776;2022-09-27T15:30:47;3.03;;;1.20;;
45686;SDS011;31399;51.176;7.776;2022-09-27T15:33:21;1.85;;;1.75;;
45686;SDS011;31399;51.176;7.776;2022-09-27T15:35:53;1.85;;;1.00;;
45686;SDS011;31399;51.176;7.776;2022-09-27T15:41:02;3.45;;;1.10;;
45686;SDS011;31399;51.176;7.776;2022-09-27T15:45:58;1.58;;;0.95;;
45686;SDS011;31399;51.176;7.776;2022-09-27T15:48:28;2.08;;;1.48;;
45686;SDS011;31399;51.176;7.776;2022-09-27T15:50:57;2.38;;;1.10;;
45686;SDS011;31399;51.176;7.776;2022-09-27T15:56:00;1.80;;;1.20;;
45686;SDS011;31399;51.176;7.776;2022-09-27T15:58:28;1.40;;;1.10;;
45686;SDS011;31399;51.176;7.776;2022-09-27T16:01:02;3.60;;;1.23;;
45686;SDS011;31399;51.176;7.776;2022-09-27T16:03:33;2.38;;;1.15;;
45686;SDS011;31399;51.176;7.776;2022-09-27T16:06:00;4.28;;;1.40;;
45686;SDS011;31399;51.176;7.776;2022-09-27T16:08:27;2.00;;;1.30;;
45686;SDS011;31399;51.176;7.776;2022-09-27T16:10:55;2.85;;;1.48;;
45686;SDS011;31399;51.176;7.776;2022-09-27T16:13:23;5.88;;;1.65;;
45686;SDS011;31399;51.176;7.776;2022-09-27T16:15:59;6.13;;;2.28;;
45686;SDS011;31399;51.176;7.776;2022-09-27T16:18:27;3.20;;;1.75;;
45686;SDS011;31399;51.176;7.776;2022-09-27T16:20:56;2.55;;;1.60;;
45686;SDS011;31399;51.176;7.776;2022-09-27T16:23:24;3.17;;;1.98;;
45686;SDS011;31399;51.176;7.776;2022-09-27T16:25:53;3.47;;;1.70;;
45686;SDS011;31399;51.176;7.776;2022-09-27T16:28:20;2.35;;;1.77;;
45686;SDS011;31399;51.176;7.776;2022-09-27T16:30:46;3.97;;;2.03;;
45686;SDS011;31399;51.176;7.776;2022-09-27T16:33:13;3.22;;;2.03;;
45686;SDS011;31399;51.176;7.776;2022-09-27T16:35:40;3.35;;;2.65;;
45686;SDS011;31399;51.176;7.776;2022-09-27T16:38:06;6.15;;;2.53;;
45686;SDS011;31399;51.176;7.776;2022-09-27T16:40:33;4.25;;;2.60;;
45686;SDS011;31399;51.176;7.776;2022-09-27T16:43:01;2.90;;;2.00;;
45686;SDS011;31399;51.176;7.776;2022-09-27T16:45:32;5.53;;;2.60;;
45686;SDS011;31399;51.176;7.776;2022-09-27T16:47:59;3.85;;;2.63;;
45686;SDS011;31399;51.176;7.776;2022-09-27T16:50:26;6.07;;;2.60;;
45686;SDS011;31399;51.176;7.776;2022-09-27T16:53:11;3.10;;;2.58;;
45686;SDS011;31399;51.176;7.776;2022-09-27T16:55:38;3.20;;;2.70;;
45686;SDS011;31399;51.176;7.776;2022-09-27T16:58:05;6.28;;;3.10;;
45686;SDS011;31399;51.176;7.776;2022-09-27T17:00:33;7.35;;;2.88;;
45686;SDS011;31399;51.176;7.776;2022-09-27T17:03:00;4.22;;;2.65;;
45686;SDS011;31399;51.176;7.776;2022-09-27T17:05:27;4.05;;;2.13;;
45686;SDS011;31399;51.176;7.776;2022-09-27T17:07:53;2.97;;;2.28;;
45686;SDS011;31399;51.176;7.776;2022-09-27T17:10:20;6.93;;;1.98;;
45686;SDS011;31399;51.176;7.776;2022-09-27T17:12:47;3.13;;;1.73;;
45686;SDS011;31399;51.176;7.776;2022-09-27T17:15:15;3.63;;;2.28;;
45686;SDS011;31399;51.176;7.776;2022-09-27T17:17:42;3.38;;;1.65;;
45686;SDS011;31399;51.176;7.776;2022-09-27T17:20:10;3.72;;;1.50;;
45686;SDS011;31399;51.176;7.776;2022-09-27T17:22:36;5.50;;;1.90;;
45686;SDS011;31399;51.176;7.776;2022-09-27T17:25:03;2.45;;;1.38;;
45686;SDS011;31399;51.176;7.776;2022-09-27T17:27:30;5.22;;;2.08;;
45686;SDS011;31399;51.176;7.776;2022-09-27T17:29:56;10.38;;;2.65;;
45686;SDS011;31399;51.176;7.776;2022-09-27T17:32:23;6.57;;;2.55;;
45686;SDS011;31399;51.176;7.776;2022-09-27T17:34:50;5.40;;;2.70;;
45686;SDS011;31399;51.176;7.776;2022-09-27T17:37:17;6.70;;;2.67;;
45686;SDS011;31399;51.176;7.776;2022-09-27T17:39:44;3.38;;;1.77;;
45686;SDS011;31399;51.176;7.776;2022-09-27T17:42:10;4.53;;;2.65;;
45686;SDS011;31399;51.176;7.776;2022-09-27T17:44:37;4.03;;;2.67;;
45686;SDS011;31399;51.176;7.776;2022-09-27T17:47:04;8.18;;;2.75;;
45686;SDS011;31399;51.176;7.776;2022-09-27T17:49:57;5.35;;;2.75;;
45686;SDS011;31399;51.176;7.776;2022-09-27T17:52:42;5.70;;;3.30;;
45686;SDS011;31399;51.176;7.776;2022-09-27T17:55:08;6.45;;;2.47;;
45686;SDS011;31399;51.176;7.776;2022-09-27T17:57:35;5.93;;;2.95;;
45686;SDS011;31399;51.176;7.776;2022-09-27T18:00:02;11.27;;;3.35;;